Time;durP1;ratioP1;P1;durP2;ratioP2;P2;SDS_P1;SDS_P2;PMS_P1;PMS_P2;Temp;Humidity;BMP_temperature;BMP_pressure;BME280_temperature;BME280_humidity;BME280_pressure;Samples;Min_cycle;Max_cycle;Signal;HPM_P1;HPM_P2
2022/01/18 00:01:59;;;;;;;75.03;8.00;;;;;;;;;;5011436;28;20038;-62
2022/01/18 00:04:27;;;;;;;76.95;9.80;;;;;;;;;;5011748;28;20492;-62
2022/01/18 00:06:53;;;;;;;82.30;9.77;;;;;;;;;;5011724;28;20443;-62
2022/01/18 00:09:22;;;;;;;56.38;6.13;;;;;;;;;;5010763;28;20050;-62
2022/01/18 00:11:57;;;;;;;76.65;8.27;;;;;;;;;;5012060;28;20117;-62
2022/01/18 00:14:26;;;;;;;85.78;8.50;;;;;;;;;;5006615;28;20050;-62
2022/01/18 00:17:17;;;;;;;67.95;7.15;;;;;;;;;;5011273;28;20049;-62
2022/01/18 00:19:53;;;;;;;83.07;8.20;;;;;;;;;;5008417;28;20088;-62
2022/01/18 00:22:19;;;;;;;69.93;8.18;;;;;;;;;;5007724;28;20045;-62
2022/01/18 00:24:45;;;;;;;69.95;7.03;;;;;;;;;;5011273;28;20038;-62
2022/01/18 00:27:15;;;;;;;70.85;7.95;;;;;;;;;;5010644;28;20127;-62
2022/01/18 00:29:52;;;;;;;59.50;5.63;;;;;;;;;;5012204;28;20048;-62
2022/01/18 00:32:31;;;;;;;66.35;6.90;;;;;;;;;;5011043;28;20042;-62
2022/01/18 00:34:57;;;;;;;73.75;7.32;;;;;;;;;;5012126;28;20046;-62
2022/01/18 00:37:32;;;;;;;65.60;7.90;;;;;;;;;;5010764;28;20045;-62
2022/01/18 00:39:58;;;;;;;38.67;5.65;;;;;;;;;;5010209;28;20049;-62
2022/01/18 00:42:24;;;;;;;48.92;6.60;;;;;;;;;;5011344;28;20045;-61
2022/01/18 00:44:50;;;;;;;40.60;5.28;;;;;;;;;;5011008;28;20168;-62
2022/01/18 00:47:16;;;;;;;46.70;4.90;;;;;;;;;;5011666;28;20077;-62
2022/01/18 00:49:45;;;;;;;42.10;5.35;;;;;;;;;;5011481;28;20128;-62
2022/01/18 00:52:13;;;;;;;50.88;6.10;;;;;;;;;;5009401;28;20056;-62
2022/01/18 00:54:43;;;;;;;61.13;7.72;;;;;;;;;;5011735;28;20105;-62
2022/01/18 00:57:09;;;;;;;65.80;5.82;;;;;;;;;;5010856;28;20046;-62
2022/01/18 00:59:36;;;;;;;56.55;5.75;;;;;;;;;;5004208;28;20120;-62
2022/01/18 01:02:03;;;;;;;44.78;5.63;;;;;;;;;;5026384;28;20050;-62
2022/01/18 01:04:33;;;;;;;51.13;5.07;;;;;;;;;;5011575;28;20045;-61
2022/01/18 01:06:59;;;;;;;42.83;5.68;;;;;;;;;;5009103;28;20046;-62
2022/01/18 01:09:25;;;;;;;61.72;5.18;;;;;;;;;;5004200;28;20481;-62
2022/01/18 01:11:52;;;;;;;65.13;5.68;;;;;;;;;;5011033;28;20042;-62
2022/01/18 01:14:22;;;;;;;45.63;5.75;;;;;;;;;;5009848;28;20048;-61
2022/01/18 01:19:28;;;;;;;38.67;5.57;;;;;;;;;;5008332;28;20052;-62
2022/01/18 01:32:17;;;;;;;52.50;6.07;;;;;;;;;;5015037;28;20121;-61
2022/01/18 01:34:15;;;;;;;58.83;6.32;;;;;;;;;;5009391;28;20093;-61
2022/01/18 01:36:33;;;;;;;45.10;5.82;;;;;;;;;;5014916;28;20191;-62
2022/01/18 01:46:42;;;;;;;52.15;5.85;;;;;;;;;;5014727;28;20452;-61
2022/01/18 01:49:13;;;;;;;48.20;5.68;;;;;;;;;;5013887;28;20045;-61
2022/01/18 01:51:39;;;;;;;38.45;5.03;;;;;;;;;;5014047;28;20097;-62
2022/01/18 01:54:07;;;;;;;37.88;5.20;;;;;;;;;;5014510;28;20060;-61
2022/01/18 01:56:34;;;;;;;30.75;4.68;;;;;;;;;;5014024;28;20042;-61
2022/01/18 01:59:00;;;;;;;42.97;5.30;;;;;;;;;;5013000;28;20128;-61
2022/01/18 02:01:26;;;;;;;42.28;5.63;;;;;;;;;;5011391;28;20042;-61
2022/01/18 02:03:53;;;;;;;44.80;8.68;;;;;;;;;;5009224;28;20092;-61
2022/01/18 02:06:19;;;;;;;53.17;8.13;;;;;;;;;;5013362;28;20096;-61
2022/01/18 02:08:45;;;;;;;44.63;5.38;;;;;;;;;;5012738;28;20101;-61
2022/01/18 02:11:12;;;;;;;35.00;4.05;;;;;;;;;;5014220;28;20045;-62
2022/01/18 02:13:39;;;;;;;51.47;7.20;;;;;;;;;;5014325;28;20081;-61
2022/01/18 02:24:02;;;;;;;40.38;5.90;;;;;;;;;;5011134;28;20105;-62
2022/01/18 02:26:29;;;;;;;38.55;4.35;;;;;;;;;;5013746;28;20049;-62
2022/01/18 02:28:55;;;;;;;54.85;5.32;;;;;;;;;;5013891;28;20095;-62
2022/01/18 02:31:21;;;;;;;45.63;4.75;;;;;;;;;;5012292;28;20130;-61
2022/01/18 02:33:47;;;;;;;30.83;4.40;;;;;;;;;;5013129;28;20462;-62
2022/01/18 02:36:14;;;;;;;41.75;5.15;;;;;;;;;;5013779;28;20053;-61
2022/01/18 02:38:40;;;;;;;29.38;4.30;;;;;;;;;;5011113;28;20133;-62
2022/01/18 02:41:07;;;;;;;39.17;4.00;;;;;;;;;;5013437;28;20057;-61
2022/01/18 02:43:47;;;;;;;25.58;4.13;;;;;;;;;;5013210;28;20045;-62
2022/01/18 02:46:13;;;;;;;32.17;3.95;;;;;;;;;;5011465;28;20123;-62
2022/01/18 02:48:39;;;;;;;29.60;3.97;;;;;;;;;;5013556;28;20042;-61
2022/01/18 02:51:05;;;;;;;30.13;3.33;;;;;;;;;;5013062;28;20056;-62
2022/01/18 02:53:31;;;;;;;33.17;5.03;;;;;;;;;;5013284;28;20050;-62
2022/01/18 02:55:59;;;;;;;39.05;5.05;;;;;;;;;;5012935;28;20084;-61
2022/01/18 02:58:29;;;;;;;42.55;5.55;;;;;;;;;;5011640;28;20046;-62
2022/01/18 03:03:26;;;;;;;36.53;4.15;;;;;;;;;;5013084;28;20133;-62
2022/01/18 03:05:52;;;;;;;47.92;5.25;;;;;;;;;;5003203;28;20132;-61
2022/01/18 03:08:19;;;;;;;41.75;4.68;;;;;;;;;;5007150;28;20050;-61
2022/01/18 03:10:45;;;;;;;30.58;4.63;;;;;;;;;;5006501;28;20052;-62
2022/01/18 03:13:11;;;;;;;46.63;5.38;;;;;;;;;;5010993;28;20061;-62
2022/01/18 03:15:37;;;;;;;40.90;4.65;;;;;;;;;;5012727;28;20104;-61
2022/01/18 03:18:06;;;;;;;27.45;3.65;;;;;;;;;;5013183;28;20034;-62
2022/01/18 03:20:32;;;;;;;48.63;4.07;;;;;;;;;;5011936;28;20050;-61
2022/01/18 03:22:58;;;;;;;49.03;5.13;;;;;;;;;;5012665;28;20077;-62
2022/01/18 03:25:27;;;;;;;39.33;5.20;;;;;;;;;;5012920;28;20046;-62
2022/01/18 03:28:05;;;;;;;35.47;4.90;;;;;;;;;;5011866;28;20474;-61
2022/01/18 03:30:38;;;;;;;39.28;5.18;;;;;;;;;;5012650;28;20030;-61
2022/01/18 03:33:05;;;;;;;29.20;4.05;;;;;;;;;;5012213;28;20073;-62
2022/01/18 03:35:31;;;;;;;30.60;5.22;;;;;;;;;;4994173;28;20074;-62
2022/01/18 03:37:57;;;;;;;32.63;4.30;;;;;;;;;;5012702;28;20038;-61
2022/01/18 03:40:24;;;;;;;38.15;5.93;;;;;;;;;;5010164;28;20076;-61
2022/01/18 03:42:51;;;;;;;36.38;4.90;;;;;;;;;;5009081;28;20474;-61
2022/01/18 03:45:18;;;;;;;28.65;4.43;;;;;;;;;;5012342;28;20038;-62
2022/01/18 03:47:45;;;;;;;34.70;5.63;;;;;;;;;;5040620;28;20056;-61
2022/01/18 03:50:12;;;;;;;41.70;5.35;;;;;;;;;;5011087;28;20434;-61
2022/01/18 03:52:39;;;;;;;37.55;5.30;;;;;;;;;;5012515;28;20046;-62
2022/01/18 03:55:06;;;;;;;27.75;6.40;;;;;;;;;;5011093;28;20137;-61
2022/01/18 03:57:32;;;;;;;32.95;4.97;;;;;;;;;;5012390;28;20045;-61
2022/01/18 03:59:58;;;;;;;46.70;5.72;;;;;;;;;;5012253;28;20155;-61
2022/01/18 04:02:25;;;;;;;40.35;4.95;;;;;;;;;;5011404;28;20041;-61
2022/01/18 04:04:51;;;;;;;24.85;4.68;;;;;;;;;;5010983;28;20100;-61
2022/01/18 04:07:17;;;;;;;30.17;5.40;;;;;;;;;;5010370;28;20056;-62
2022/01/18 04:09:43;;;;;;;47.33;5.07;;;;;;;;;;5008392;28;20057;-61
2022/01/18 04:12:10;;;;;;;36.90;5.90;;;;;;;;;;5007771;28;20042;-62
2022/01/18 04:14:36;;;;;;;26.33;4.78;;;;;;;;;;5011625;28;20485;-61
2022/01/18 04:17:15;;;;;;;30.45;5.07;;;;;;;;;;5009938;28;20049;-61
2022/01/18 04:27:50;;;;;;;27.83;4.80;;;;;;;;;;5011614;28;20486;-61
2022/01/18 04:30:17;;;;;;;25.77;4.10;;;;;;;;;;5011163;28;20069;-61
2022/01/18 04:32:44;;;;;;;19.00;3.45;;;;;;;;;;5011564;28;20049;-61
2022/01/18 04:35:10;;;;;;;31.00;4.78;;;;;;;;;;5010229;28;20088;-61
2022/01/18 04:37:36;;;;;;;28.83;3.88;;;;;;;;;;5009978;28;20037;-61
2022/01/18 04:40:11;;;;;;;28.75;5.72;;;;;;;;;;5011669;28;20045;-61
2022/01/18 04:50:46;;;;;;;25.63;3.97;;;;;;;;;;5010705;28;20042;-61
2022/01/18 04:53:12;;;;;;;28.02;4.32;;;;;;;;;;5011537;28;20394;-61
2022/01/18 04:55:38;;;;;;;34.28;5.03;;;;;;;;;;5011898;28;20486;-61
2022/01/18 04:58:04;;;;;;;32.55;4.30;;;;;;;;;;5015259;28;20060;-61
2022/01/18 05:00:30;;;;;;;36.95;4.57;;;;;;;;;;5015418;28;20060;-61
2022/01/18 05:02:56;;;;;;;40.35;3.85;;;;;;;;;;5009149;28;20034;-61
2022/01/18 05:05:26;;;;;;;42.20;4.97;;;;;;;;;;5015043;28;20152;-61
2022/01/18 05:07:53;;;;;;;36.47;4.90;;;;;;;;;;5014245;28;20108;-61
2022/01/18 05:10:22;;;;;;;26.45;4.47;;;;;;;;;;5013659;28;20105;-61
2022/01/18 05:12:52;;;;;;;34.35;4.80;;;;;;;;;;5012116;28;20042;-61
2022/01/18 05:21:06;;;;;;;32.63;4.10;;;;;;;;;;5006125;28;20084;-61
2022/01/18 05:23:27;;;;;;;37.88;4.85;;;;;;;;;;5007319;28;20038;-61
2022/01/18 05:25:53;;;;;;;34.63;5.60;;;;;;;;;;5013879;28;20049;-61
2022/01/18 05:28:19;;;;;;;30.80;4.18;;;;;;;;;;5015155;28;20046;-61
2022/01/18 05:30:45;;;;;;;31.85;5.05;;;;;;;;;;5013778;28;20092;-61
2022/01/18 05:33:11;;;;;;;39.55;5.25;;;;;;;;;;5013952;28;20042;-61
2022/01/18 05:35:37;;;;;;;25.08;3.55;;;;;;;;;;5014745;28;20045;-61
2022/01/18 05:38:05;;;;;;;35.70;4.90;;;;;;;;;;5015240;28;20398;-61
2022/01/18 05:40:31;;;;;;;41.40;4.85;;;;;;;;;;5014009;28;20061;-61
2022/01/18 05:42:57;;;;;;;32.10;3.78;;;;;;;;;;5013542;28;20053;-61
2022/01/18 05:45:23;;;;;;;22.17;3.28;;;;;;;;;;5012900;28;20042;-61
2022/01/18 05:47:49;;;;;;;33.38;3.75;;;;;;;;;;5012537;28;20050;-61
2022/01/18 05:50:15;;;;;;;26.33;3.22;;;;;;;;;;5001014;28;20054;-62
2022/01/18 05:52:42;;;;;;;32.85;3.80;;;;;;;;;;5013341;28;20207;-62
2022/01/18 05:55:09;;;;;;;34.83;4.82;;;;;;;;;;5013882;28;20050;-61
2022/01/18 05:57:36;;;;;;;25.33;3.30;;;;;;;;;;5014551;28;20463;-61
2022/01/18 06:00:06;;;;;;;34.53;4.50;;;;;;;;;;5012825;28;20045;-61
2022/01/18 06:02:42;;;;;;;29.20;3.63;;;;;;;;;;5011699;28;20145;-61
2022/01/18 06:07:55;;;;;;;27.85;3.85;;;;;;;;;;5012419;28;20041;-61
2022/01/18 06:10:21;;;;;;;36.67;6.93;;;;;;;;;;5014311;28;20056;-61
2022/01/18 06:12:47;;;;;;;39.00;4.50;;;;;;;;;;5008986;28;20503;-61
2022/01/18 06:15:13;;;;;;;40.92;6.20;;;;;;;;;;5012508;28;20049;-61
2022/01/18 06:17:39;;;;;;;34.70;4.95;;;;;;;;;;5013537;28;20048;-62
2022/01/18 06:20:07;;;;;;;30.98;4.90;;;;;;;;;;5012375;28;20053;-62
2022/01/18 06:22:33;;;;;;;30.45;5.20;;;;;;;;;;5042399;28;20394;-61
2022/01/18 06:24:59;;;;;;;33.42;5.85;;;;;;;;;;5016006;28;20123;-62
2022/01/18 06:27:25;;;;;;;36.88;6.88;;;;;;;;;;5012365;28;20056;-61
2022/01/18 06:29:52;;;;;;;39.58;5.53;;;;;;;;;;5010498;28;20039;-62
2022/01/18 06:32:18;;;;;;;46.40;5.50;;;;;;;;;;5013855;28;20050;-62
2022/01/18 06:34:44;;;;;;;30.27;5.35;;;;;;;;;;5010813;28;20544;-62
2022/01/18 06:37:11;;;;;;;50.30;6.05;;;;;;;;;;5010487;28;20042;-61
2022/01/18 06:39:37;;;;;;;27.50;4.97;;;;;;;;;;5014241;28;20069;-62
2022/01/18 06:42:04;;;;;;;32.47;5.47;;;;;;;;;;5012508;28;20073;-62
2022/01/18 06:44:31;;;;;;;33.45;4.95;;;;;;;;;;5011509;28;20041;-62
2022/01/18 06:46:57;;;;;;;25.52;5.60;;;;;;;;;;4993009;28;20049;-62
2022/01/18 06:49:23;;;;;;;34.10;5.72;;;;;;;;;;5016195;28;20043;-62
2022/01/18 06:51:50;;;;;;;37.17;6.43;;;;;;;;;;5010574;28;20099;-61
2022/01/18 06:54:17;;;;;;;34.78;6.55;;;;;;;;;;5008792;28;20382;-61
2022/01/18 06:56:48;;;;;;;28.42;5.32;;;;;;;;;;5014239;28;20531;-62
2022/01/18 06:59:14;;;;;;;33.33;5.78;;;;;;;;;;5015924;28;20091;-62
2022/01/18 07:01:40;;;;;;;23.85;5.57;;;;;;;;;;5015830;28;20125;-62
2022/01/18 07:04:06;;;;;;;34.22;5.68;;;;;;;;;;5014340;28;20138;-62
2022/01/18 07:06:33;;;;;;;34.47;5.65;;;;;;;;;;5019586;28;20489;-62
2022/01/18 07:09:00;;;;;;;31.83;6.85;;;;;;;;;;5024539;28;20048;-62
2022/01/18 07:11:26;;;;;;;43.58;6.95;;;;;;;;;;5012354;28;20543;-62
2022/01/18 07:13:52;;;;;;;73.80;6.68;;;;;;;;;;5020966;28;20076;-62
2022/01/18 07:16:18;;;;;;;40.83;7.20;;;;;;;;;;5015433;28;20045;-62
2022/01/18 07:18:45;;;;;;;38.38;7.55;;;;;;;;;;5021599;28;20034;-62
2022/01/18 07:21:11;;;;;;;35.53;6.00;;;;;;;;;;5029967;28;20033;-62
2022/01/18 07:23:38;;;;;;;34.55;6.93;;;;;;;;;;5016310;28;20048;-62
2022/01/18 07:26:04;;;;;;;33.03;6.40;;;;;;;;;;5002665;28;20425;-62
2022/01/18 07:28:31;;;;;;;37.78;8.23;;;;;;;;;;5005631;28;20050;-62
2022/01/18 07:30:57;;;;;;;43.78;8.27;;;;;;;;;;5006737;28;20037;-61
2022/01/18 07:33:23;;;;;;;32.10;6.60;;;;;;;;;;5016221;28;20049;-62
2022/01/18 07:35:50;;;;;;;27.27;6.38;;;;;;;;;;5011368;28;20123;-62
2022/01/18 07:38:18;;;;;;;45.05;7.43;;;;;;;;;;5015754;28;20047;-62
2022/01/18 07:40:45;;;;;;;35.53;6.47;;;;;;;;;;5003091;28;20043;-62
2022/01/18 07:43:15;;;;;;;41.47;8.30;;;;;;;;;;5002525;28;20046;-62
2022/01/18 07:45:42;;;;;;;30.92;7.65;;;;;;;;;;4999458;28;20053;-61
2022/01/18 07:48:09;;;;;;;35.72;6.82;;;;;;;;;;4999956;28;20074;-65
2022/01/18 07:50:35;;;;;;;35.97;6.88;;;;;;;;;;5018628;28;20041;-62
2022/01/18 07:53:01;;;;;;;36.42;7.90;;;;;;;;;;5029117;28;20373;-62
2022/01/18 07:55:27;;;;;;;52.08;10.00;;;;;;;;;;5028600;28;20041;-62
2022/01/18 07:57:56;;;;;;;69.35;9.60;;;;;;;;;;5026262;28;20437;-63
2022/01/18 08:00:22;;;;;;;88.47;11.25;;;;;;;;;;5024603;28;20095;-64
2022/01/18 08:02:48;;;;;;;80.95;10.73;;;;;;;;;;5009250;28;20077;-63
2022/01/18 08:05:15;;;;;;;77.40;11.93;;;;;;;;;;5003189;28;20038;-63
2022/01/18 08:07:41;;;;;;;97.07;11.77;;;;;;;;;;5010752;28;20050;-63
2022/01/18 08:10:08;;;;;;;110.40;13.90;;;;;;;;;;5014929;28;20125;-63
2022/01/18 08:12:34;;;;;;;109.55;13.10;;;;;;;;;;5002354;28;20069;-63
2022/01/18 08:15:03;;;;;;;160.13;16.80;;;;;;;;;;5001372;28;20046;-63
2022/01/18 08:17:30;;;;;;;103.43;13.75;;;;;;;;;;5003578;28;20043;-63
2022/01/18 08:19:56;;;;;;;95.55;12.98;;;;;;;;;;5010444;28;20072;-63
2022/01/18 08:22:22;;;;;;;78.85;12.55;;;;;;;;;;5009017;28;20073;-63
2022/01/18 08:24:48;;;;;;;114.95;14.93;;;;;;;;;;5003420;28;20038;-63
2022/01/18 08:27:15;;;;;;;123.50;15.80;;;;;;;;;;5011712;28;20045;-64
2022/01/18 08:29:41;;;;;;;100.25;14.40;;;;;;;;;;5001668;28;20049;-62
2022/01/18 08:32:07;;;;;;;111.32;14.77;;;;;;;;;;5002661;28;20125;-63
2022/01/18 08:34:33;;;;;;;101.20;14.60;;;;;;;;;;5016964;28;20068;-63
2022/01/18 08:36:59;;;;;;;61.05;11.75;;;;;;;;;;5001452;28;20038;-63
2022/01/18 08:39:26;;;;;;;66.97;14.23;;;;;;;;;;5011074;28;20112;-62
2022/01/18 08:41:52;;;;;;;65.45;11.48;;;;;;;;;;5007242;28;20054;-64
2022/01/18 08:44:18;;;;;;;44.83;9.50;;;;;;;;;;5019360;28;20120;-63
2022/01/18 08:46:44;;;;;;;50.75;8.63;;;;;;;;;;5006921;28;20124;-63
2022/01/18 08:49:10;;;;;;;35.47;6.60;;;;;;;;;;5000571;28;20053;-62
2022/01/18 08:51:36;;;;;;;37.47;6.95;;;;;;;;;;5012011;28;20394;-62
2022/01/18 08:54:04;;;;;;;50.08;7.80;;;;;;;;;;5010544;28;20100;-65
2022/01/18 08:56:31;;;;;;;45.25;8.23;;;;;;;;;;5014439;28;20042;-66
2022/01/18 08:58:58;;;;;;;43.58;7.55;;;;;;;;;;5001346;28;20167;-65
2022/01/18 09:01:24;;;;;;;38.10;6.18;;;;;;;;;;5004186;28;20042;-65
2022/01/18 09:03:50;;;;;;;58.00;8.57;;;;;;;;;;5001486;28;20049;-66
2022/01/18 09:06:18;;;;;;;35.67;7.30;;;;;;;;;;5001367;28;20202;-62
2022/01/18 09:08:54;;;;;;;45.50;7.03;;;;;;;;;;5009869;28;20472;-61
2022/01/18 09:11:21;;;;;;;38.75;7.03;;;;;;;;;;5002578;28;20398;-61
2022/01/18 09:13:47;;;;;;;37.40;6.55;;;;;;;;;;5008886;28;20536;-61
2022/01/18 09:16:13;;;;;;;48.33;7.30;;;;;;;;;;5000491;28;20046;-62
2022/01/18 09:18:39;;;;;;;33.42;6.82;;;;;;;;;;5016374;28;20041;-62
2022/01/18 09:21:05;;;;;;;40.83;8.50;;;;;;;;;;5002790;28;20143;-62
2022/01/18 09:23:32;;;;;;;44.63;7.95;;;;;;;;;;5012800;28;20046;-61
2022/01/18 09:25:58;;;;;;;46.78;6.90;;;;;;;;;;5013771;28;20512;-62
2022/01/18 09:28:24;;;;;;;37.28;7.70;;;;;;;;;;5006112;28;20030;-61
2022/01/18 09:30:50;;;;;;;38.33;6.82;;;;;;;;;;5004067;28;20046;-62
2022/01/18 09:33:16;;;;;;;34.13;6.70;;;;;;;;;;5004427;28;20053;-61
2022/01/18 09:35:42;;;;;;;48.15;8.07;;;;;;;;;;5011041;28;20448;-65
2022/01/18 09:38:09;;;;;;;39.28;6.50;;;;;;;;;;5007959;28;20405;-65
2022/01/18 09:40:38;;;;;;;33.28;6.10;;;;;;;;;;5000054;28;20064;-66
2022/01/18 09:43:10;;;;;;;36.25;6.45;;;;;;;;;;5018537;28;20056;-65
2022/01/18 09:45:39;;;;;;;23.85;6.03;;;;;;;;;;5014063;28;20100;-65
2022/01/18 09:48:05;;;;;;;32.55;6.15;;;;;;;;;;5004694;28;20052;-66
2022/01/18 09:50:34;;;;;;;28.83;5.60;;;;;;;;;;5015149;28;20045;-65
2022/01/18 09:53:00;;;;;;;24.33;5.57;;;;;;;;;;5014471;28;20506;-66
2022/01/18 09:55:29;;;;;;;21.27;5.50;;;;;;;;;;5017697;28;20043;-65
2022/01/18 09:57:56;;;;;;;23.38;5.45;;;;;;;;;;5012916;28;20045;-65
2022/01/18 10:00:23;;;;;;;29.50;6.45;;;;;;;;;;5010415;28;20120;-65
2022/01/18 10:02:49;;;;;;;29.95;7.00;;;;;;;;;;5014728;28;20064;-65
2022/01/18 10:05:20;;;;;;;26.17;6.10;;;;;;;;;;5005655;28;20045;-65
2022/01/18 10:07:54;;;;;;;23.73;7.22;;;;;;;;;;5018891;28;20057;-65
2022/01/18 10:10:21;;;;;;;25.67;6.90;;;;;;;;;;5018232;28;20104;-65
2022/01/18 10:12:56;;;;;;;23.67;6.70;;;;;;;;;;5017134;28;20034;-66
2022/01/18 10:15:22;;;;;;;38.95;8.35;;;;;;;;;;5029860;28;20083;-65
2022/01/18 10:17:48;;;;;;;46.30;8.57;;;;;;;;;;5029854;28;20038;-65
2022/01/18 10:20:19;;;;;;;71.65;10.73;;;;;;;;;;5028168;28;20110;-65
2022/01/18 10:22:49;;;;;;;57.40;9.98;;;;;;;;;;5030635;28;20093;-65
2022/01/18 10:25:16;;;;;;;46.40;9.75;;;;;;;;;;5029545;28;20050;-65
2022/01/18 10:27:42;;;;;;;53.08;9.25;;;;;;;;;;5029366;28;20054;-65
2022/01/18 10:30:15;;;;;;;39.50;8.82;;;;;;;;;;5018070;28;20074;-68
2022/01/18 10:32:42;;;;;;;31.08;9.40;;;;;;;;;;5020531;28;20051;-65
2022/01/18 10:35:10;;;;;;;43.92;9.38;;;;;;;;;;5027352;28;20061;-65
2022/01/18 10:37:41;;;;;;;53.67;8.57;;;;;;;;;;5021952;28;20383;-65
2022/01/18 10:40:15;;;;;;;34.38;8.52;;;;;;;;;;5017695;28;20049;-65
2022/01/18 10:42:46;;;;;;;41.70;9.50;;;;;;;;;;5025972;28;20080;-65
2022/01/18 10:45:14;;;;;;;49.25;9.02;;;;;;;;;;5026654;28;20112;-65
2022/01/18 10:47:49;;;;;;;51.55;10.18;;;;;;;;;;5029144;28;20379;-66
2022/01/18 10:50:17;;;;;;;43.47;10.48;;;;;;;;;;5020257;28;20052;-65
2022/01/18 10:52:43;;;;;;;44.65;10.23;;;;;;;;;;5014758;28;20144;-65
2022/01/18 10:55:17;;;;;;;37.90;10.60;;;;;;;;;;5026987;28;20132;-65
2022/01/18 10:57:44;;;;;;;37.58;8.85;;;;;;;;;;5021332;28;20453;-65
2022/01/18 11:00:11;;;;;;;40.05;10.00;;;;;;;;;;5019699;28;20052;-65
2022/01/18 11:02:39;;;;;;;47.38;9.48;;;;;;;;;;5039785;28;20052;-65
2022/01/18 11:05:13;;;;;;;36.28;9.65;;;;;;;;;;5019254;28;20037;-65
2022/01/18 11:07:39;;;;;;;46.35;10.02;;;;;;;;;;5010040;28;20100;-65
2022/01/18 11:10:07;;;;;;;37.38;10.23;;;;;;;;;;5024179;28;20033;-66
2022/01/18 11:12:58;;;;;;;34.85;8.63;;;;;;;;;;5029401;28;20041;-66
2022/01/18 11:15:27;;;;;;;39.58;9.23;;;;;;;;;;5011209;28;20103;-65
2022/01/18 11:17:58;;;;;;;39.75;10.05;;;;;;;;;;5018907;28;20116;-65
2022/01/18 11:20:26;;;;;;;51.03;12.25;;;;;;;;;;5030132;28;20172;-66
2022/01/18 11:22:52;;;;;;;37.28;9.48;;;;;;;;;;5019494;28;20081;-65
2022/01/18 11:25:19;;;;;;;44.28;11.27;;;;;;;;;;5014816;28;20045;-65
2022/01/18 11:27:49;;;;;;;37.30;9.55;;;;;;;;;;5018421;28;20124;-66
2022/01/18 11:30:18;;;;;;;38.20;10.07;;;;;;;;;;5028274;28;20096;-66
2022/01/18 11:32:45;;;;;;;49.92;9.95;;;;;;;;;;5027160;28;20114;-66
2022/01/18 11:35:13;;;;;;;41.55;9.35;;;;;;;;;;5027880;28;20040;-65
2022/01/18 11:37:42;;;;;;;41.60;10.13;;;;;;;;;;5018227;28;20153;-65
2022/01/18 11:40:10;;;;;;;54.42;11.30;;;;;;;;;;5020969;28;20045;-66
2022/01/18 11:42:41;;;;;;;86.22;11.63;;;;;;;;;;5015558;28;20461;-65
2022/01/18 11:45:25;;;;;;;42.40;8.43;;;;;;;;;;5015157;28;20442;-65
2022/01/18 11:47:52;;;;;;;;;;;;;;;;;;5013375;28;20084;-65
2022/01/18 11:50:18;;;;;;;45.85;9.02;;;;;;;;;;5029065;28;19921;-65
2022/01/18 11:52:47;;;;;;;35.88;8.98;;;;;;;;;;5016528;28;20096;-65
2022/01/18 11:55:33;;;;;;;34.10;8.68;;;;;;;;;;5013435;28;20056;-65
2022/01/18 11:58:11;;;;;;;39.78;8.07;;;;;;;;;;5014831;28;20038;-65
2022/01/18 12:00:49;;;;;;;38.78;8.25;;;;;;;;;;5016998;28;20125;-65
2022/01/18 12:03:16;;;;;;;32.78;7.93;;;;;;;;;;5024732;28;20037;-65
2022/01/18 12:05:43;;;;;;;31.83;7.60;;;;;;;;;;5015113;28;20448;-65
2022/01/18 12:08:10;;;;;;;33.08;7.65;;;;;;;;;;5017981;28;20439;-66
2022/01/18 12:10:42;;;;;;;26.95;7.75;;;;;;;;;;5026463;28;20506;-66
2022/01/18 12:13:11;;;;;;;45.75;7.72;;;;;;;;;;5024414;28;20045;-66
2022/01/18 12:15:38;;;;;;;29.38;7.15;;;;;;;;;;5021156;28;20068;-65
2022/01/18 12:18:13;;;;;;;28.75;7.78;;;;;;;;;;5024227;28;20196;-66
2022/01/18 12:20:40;;;;;;;30.08;8.60;;;;;;;;;;5025824;28;20044;-65
2022/01/18 12:23:09;;;;;;;38.00;9.40;;;;;;;;;;5027742;28;20060;-65
2022/01/18 12:25:36;;;;;;;36.90;8.38;;;;;;;;;;5022931;28;20171;-65
2022/01/18 12:28:32;;;;;;;49.50;8.88;;;;;;;;;;5017096;28;20104;-65
2022/01/18 12:31:06;;;;;;;49.60;9.65;;;;;;;;;;5010654;28;20157;-65
2022/01/18 12:33:45;;;;;;;59.88;10.25;;;;;;;;;;5024138;28;20434;-65
2022/01/18 12:36:29;;;;;;;49.72;10.95;;;;;;;;;;5023859;28;20203;-65
2022/01/18 12:38:57;;;;;;;39.65;10.48;;;;;;;;;;5013135;28;20049;-65
2022/01/18 12:41:41;;;;;;;42.97;10.48;;;;;;;;;;5013882;28;20093;-65
2022/01/18 12:44:20;;;;;;;47.53;10.40;;;;;;;;;;5014158;28;20416;-65
2022/01/18 12:46:54;;;;;;;38.20;10.57;;;;;;;;;;5013916;28;20105;-65
2022/01/18 12:49:21;;;;;;;37.70;10.13;;;;;;;;;;5005440;28;20557;-65
2022/01/18 12:51:54;;;;;;;35.38;10.60;;;;;;;;;;5012588;28;20041;-65
2022/01/18 12:54:20;;;;;;;45.40;10.52;;;;;;;;;;5026875;28;20436;-65
2022/01/18 12:56:46;;;;;;;38.60;10.95;;;;;;;;;;5027786;28;20037;-65
2022/01/18 12:59:13;;;;;;;51.80;11.10;;;;;;;;;;5027667;28;20476;-65
2022/01/18 13:01:39;;;;;;;38.55;10.70;;;;;;;;;;5027043;28;20105;-65
2022/01/18 13:04:08;;;;;;;40.13;10.75;;;;;;;;;;5025238;28;20045;-65
2022/01/18 13:06:35;;;;;;;39.88;11.20;;;;;;;;;;5026717;28;20076;-65
2022/01/18 13:09:03;;;;;;;31.63;10.18;;;;;;;;;;5026697;28;20132;-65
2022/01/18 13:11:30;;;;;;;35.10;10.52;;;;;;;;;;5025015;28;20037;-65
2022/01/18 13:14:02;;;;;;;33.45;10.40;;;;;;;;;;5027792;28;20037;-65
2022/01/18 13:24:51;;;;;;;42.15;9.55;;;;;;;;;;5029198;28;20486;-65
2022/01/18 13:27:25;;;;;;;36.88;9.85;;;;;;;;;;5030533;28;20084;-65
2022/01/18 13:29:54;;;;;;;30.40;9.65;;;;;;;;;;5024794;28;20037;-65
2022/01/18 13:32:27;;;;;;;39.50;10.93;;;;;;;;;;5019972;28;20112;-66
2022/01/18 13:34:56;;;;;;;46.50;11.20;;;;;;;;;;5030435;28;20137;-66
2022/01/18 13:37:26;;;;;;;38.58;13.20;;;;;;;;;;5018043;28;20053;-65
2022/01/18 13:39:53;;;;;;;62.45;13.90;;;;;;;;;;5018752;28;20053;-65
2022/01/18 13:42:21;;;;;;;70.22;14.50;;;;;;;;;;5019310;28;20111;-65
2022/01/18 13:45:07;;;;;;;62.85;15.10;;;;;;;;;;5026310;28;20558;-65
2022/01/18 13:47:43;;;;;;;67.47;16.20;;;;;;;;;;5012750;28;20037;-66
2022/01/18 13:50:28;;;;;;;83.90;17.25;;;;;;;;;;5018241;28;20125;-65
2022/01/18 13:53:01;;;;;;;55.72;16.30;;;;;;;;;;5014672;28;20374;-65
2022/01/18 13:55:29;;;;;;;57.60;16.38;;;;;;;;;;5039777;28;20457;-65
2022/01/18 13:57:57;;;;;;;77.22;15.20;;;;;;;;;;5018508;28;20389;-65
2022/01/18 14:00:24;;;;;;;48.38;15.35;;;;;;;;;;5023791;28;20044;-65
2022/01/18 14:02:50;;;;;;;55.60;15.88;;;;;;;;;;5028452;28;20087;-65
2022/01/18 14:05:20;;;;;;;46.95;15.48;;;;;;;;;;5027666;28;20443;-65
2022/01/18 14:07:46;;;;;;;53.22;16.08;;;;;;;;;;5029024;28;20061;-65
2022/01/18 14:10:13;;;;;;;62.90;18.10;;;;;;;;;;5027028;28;20450;-63
2022/01/18 14:12:39;;;;;;;45.85;14.10;;;;;;;;;;4997818;28;20082;-65
2022/01/18 14:15:05;;;;;;;68.07;14.30;;;;;;;;;;5016017;28;20049;-65
2022/01/18 14:17:31;;;;;;;44.75;13.80;;;;;;;;;;5020561;28;20069;-65
2022/01/18 14:20:03;;;;;;;52.20;12.30;;;;;;;;;;5031079;28;20087;-66
2022/01/18 14:22:34;;;;;;;84.28;13.57;;;;;;;;;;5045106;28;20046;-65
2022/01/18 14:25:04;;;;;;;53.58;12.02;;;;;;;;;;5017748;28;20033;-65
2022/01/18 14:27:34;;;;;;;66.57;12.70;;;;;;;;;;5016722;28;20038;-65
2022/01/18 14:30:01;;;;;;;74.95;13.82;;;;;;;;;;5016825;28;20037;-65
2022/01/18 14:32:30;;;;;;;69.43;11.60;;;;;;;;;;5028396;28;20049;-65
2022/01/18 14:34:58;;;;;;;41.78;11.65;;;;;;;;;;5018118;28;20478;-65
2022/01/18 14:37:34;;;;;;;58.95;12.60;;;;;;;;;;5017410;28;20042;-65
2022/01/18 14:40:03;;;;;;;55.00;12.73;;;;;;;;;;5018320;28;20038;-65
2022/01/18 14:42:33;;;;;;;39.13;12.02;;;;;;;;;;5017242;28;20057;-65
2022/01/18 14:47:39;;;;;;;36.20;11.35;;;;;;;;;;5010363;28;20179;-65
2022/01/18 14:50:07;;;;;;;52.75;11.88;;;;;;;;;;5015211;28;20045;-66
2022/01/18 14:52:33;;;;;;;47.60;11.77;;;;;;;;;;5010028;28;20046;-65
2022/01/18 14:55:00;;;;;;;41.65;12.85;;;;;;;;;;5014734;28;20041;-65
2022/01/18 14:57:26;;;;;;;48.30;13.02;;;;;;;;;;5016618;28;20037;-66
2022/01/18 14:59:53;;;;;;;45.65;12.32;;;;;;;;;;5025997;28;20072;-65
2022/01/18 15:02:20;;;;;;;48.47;12.15;;;;;;;;;;5020138;28;20433;-65
2022/01/18 15:04:46;;;;;;;55.97;12.27;;;;;;;;;;5010417;28;20513;-65
2022/01/18 15:07:12;;;;;;;36.70;12.43;;;;;;;;;;5020916;28;20053;-65
2022/01/18 15:09:39;;;;;;;62.25;12.65;;;;;;;;;;5008654;28;20057;-65
2022/01/18 15:12:06;;;;;;;68.32;12.63;;;;;;;;;;5009924;28;20037;-65
2022/01/18 15:14:32;;;;;;;67.28;13.38;;;;;;;;;;5006960;28;20057;-65
2022/01/18 15:16:59;;;;;;;63.15;13.93;;;;;;;;;;5008985;28;20482;-65
2022/01/18 15:19:25;;;;;;;42.25;13.65;;;;;;;;;;5008809;28;20124;-65
2022/01/18 15:21:52;;;;;;;61.75;13.27;;;;;;;;;;5007971;28;20452;-65
2022/01/18 15:24:18;;;;;;;49.97;13.18;;;;;;;;;;5007796;28;20405;-65
2022/01/18 15:26:44;;;;;;;32.58;12.93;;;;;;;;;;5010310;28;20398;-65
2022/01/18 15:29:11;;;;;;;43.60;14.82;;;;;;;;;;5008905;28;20068;-65
2022/01/18 15:31:37;;;;;;;27.55;12.80;;;;;;;;;;5036524;28;20096;-64
2022/01/18 15:34:03;;;;;;;48.03;13.80;;;;;;;;;;4988936;28;20045;-65
2022/01/18 15:36:29;;;;;;;37.47;13.05;;;;;;;;;;5020046;28;20050;-65
2022/01/18 15:38:55;;;;;;;36.90;11.50;;;;;;;;;;5006550;28;20045;-66